Time;durP1;ratioP1;P1;durP2;ratioP2;P2;SDS_P1;SDS_P2;PMS_P1;PMS_P2;Temp;Humidity;BMP_temperature;BMP_pressure;BME280_temperature;BME280_humidity;BME280_pressure;Samples;Min_cycle;Max_cycle;Signal;HPM_P1;HPM_P2
2023/08/24 00:02:34;;;;;;;11.38;9.70;;;25.70;99.90;;;;;;6233191;28;88295;-67
2023/08/24 00:05:37;;;;;;;10.35;9.40;;;25.60;99.90;;;;;;6241711;27;89296;-67
2023/08/24 00:08:39;;;;;;;10.02;9.15;;;25.60;99.90;;;;;;6240380;28;89058;-67
2023/08/24 00:11:41;;;;;;;10.20;9.20;;;25.60;99.90;;;;;;6237244;28;90023;-66
2023/08/24 00:14:43;;;;;;;11.48;9.32;;;25.60;99.90;;;;;;6240934;27;89073;-66
2023/08/24 00:17:47;;;;;;;10.15;9.25;;;25.60;99.90;;;;;;6234458;27;89016;-67
2023/08/24 00:20:49;;;;;;;10.38;9.40;;;25.60;99.90;;;;;;6246317;28;89103;-67
2023/08/24 00:23:51;;;;;;;10.57;9.57;;;25.50;99.90;;;;;;6237406;27;89161;-66
2023/08/24 00:26:53;;;;;;;12.20;10.15;;;25.50;99.90;;;;;;6237519;28;89223;-67
2023/08/24 00:29:55;;;;;;;11.27;10.32;;;25.50;99.90;;;;;;6239890;28;89062;-66
2023/08/24 00:32:59;;;;;;;10.77;9.73;;;25.50;99.90;;;;;;6236301;28;87211;-66
2023/08/24 00:36:01;;;;;;;10.48;9.48;;;25.50;99.90;;;;;;6244621;28;89187;-66
2023/08/24 00:39:04;;;;;;;10.32;9.40;;;25.50;99.90;;;;;;6250548;28;89148;-66
2023/08/24 00:42:08;;;;;;;10.77;9.68;;;25.50;99.90;;;;;;6245236;27;88973;-67
2023/08/24 00:45:11;;;;;;;10.77;9.75;;;25.50;99.90;;;;;;6239494;28;89248;-67
2023/08/24 00:48:15;;;;;;;10.60;9.60;;;25.50;99.90;;;;;;6245472;28;87993;-66
2023/08/24 00:51:17;;;;;;;11.23;10.10;;;25.40;99.90;;;;;;6245743;28;89511;-67
2023/08/24 00:54:19;;;;;;;12.30;10.50;;;25.40;99.90;;;;;;6249994;28;89087;-66
2023/08/24 00:57:22;;;;;;;10.55;9.52;;;25.40;99.90;;;;;;6233890;28;89075;-67
2023/08/24 01:00:24;;;;;;;11.25;10.10;;;25.40;99.90;;;;;;6242747;28;89324;-66
2023/08/24 01:03:28;;;;;;;12.15;10.88;;;25.50;99.90;;;;;;6231821;28;88337;-66
2023/08/24 01:06:30;;;;;;;10.98;9.98;;;25.40;99.90;;;;;;6244877;27;89418;-67
2023/08/24 01:09:32;;;;;;;10.88;9.93;;;25.40;99.90;;;;;;6230554;28;90501;-67
2023/08/24 01:12:43;;;;;;;10.68;9.73;;;25.40;99.90;;;;;;6236119;28;89782;-66
2023/08/24 01:15:52;;;;;;;10.70;9.73;;;25.40;99.90;;;;;;6241632;28;89308;-66
2023/08/24 01:18:59;;;;;;;10.43;9.50;;;25.40;99.90;;;;;;6236204;28;89070;-66
2023/08/24 01:22:03;;;;;;;10.80;9.80;;;25.50;99.90;;;;;;6232089;28;89514;-67
2023/08/24 01:25:14;;;;;;;10.63;9.82;;;25.50;99.90;;;;;;6234479;28;89229;-66
2023/08/24 01:28:19;;;;;;;10.27;9.27;;;25.30;99.90;;;;;;6237126;28;89050;-67
2023/08/24 01:31:21;;;;;;;10.65;9.70;;;25.40;99.90;;;;;;6230055;28;89655;-66
2023/08/24 01:34:23;;;;;;;10.68;9.63;;;25.30;99.90;;;;;;6230351;28;88262;-67
2023/08/24 01:37:25;;;;;;;10.75;9.82;;;25.30;99.90;;;;;;6240685;28;89031;-66
2023/08/24 01:40:32;;;;;;;10.82;9.85;;;25.30;99.90;;;;;;6249522;28;91921;-66
2023/08/24 01:43:37;;;;;;;11.85;10.68;;;25.30;99.90;;;;;;6233924;28;89945;-67
2023/08/24 01:46:41;;;;;;;11.48;10.38;;;25.30;99.90;;;;;;6230192;28;89048;-67
2023/08/24 01:49:44;;;;;;;11.75;10.10;;;25.20;99.90;;;;;;6241059;28;89175;-67
2023/08/24 01:52:46;;;;;;;12.38;11.18;;;25.30;99.90;;;;;;6246687;28;89446;-67
2023/08/24 01:55:48;;;;;;;12.15;10.95;;;25.30;99.90;;;;;;6241029;28;89337;-67
2023/08/24 01:58:51;;;;;;;11.18;10.07;;;25.30;99.90;;;;;;6234156;28;89329;-67
2023/08/24 02:01:53;;;;;;;10.30;9.40;;;25.30;99.90;;;;;;6245059;28;89445;-67
2023/08/24 02:04:55;;;;;;;10.20;9.10;;;25.20;99.90;;;;;;6248820;28;88608;-67
2023/08/24 02:07:59;;;;;;;10.98;9.90;;;25.20;99.90;;;;;;6239340;28;89055;-67
2023/08/24 02:11:01;;;;;;;11.48;10.18;;;25.20;99.90;;;;;;6230484;28;89055;-67
2023/08/24 02:14:05;;;;;;;10.88;9.98;;;25.20;99.90;;;;;;6236794;28;89904;-67
2023/08/24 02:17:07;;;;;;;10.68;9.80;;;25.20;99.90;;;;;;6234353;28;88977;-67
2023/08/24 02:20:11;;;;;;;10.77;9.75;;;25.20;99.90;;;;;;6240020;28;89029;-67
2023/08/24 02:23:13;;;;;;;10.57;9.57;;;25.20;99.90;;;;;;6239399;28;91473;-67
2023/08/24 02:26:15;;;;;;;10.93;9.93;;;25.20;99.90;;;;;;6243023;28;87939;-67
2023/08/24 02:29:18;;;;;;;10.45;9.48;;;25.10;99.90;;;;;;6244684;28;89467;-67
2023/08/24 02:32:20;;;;;;;10.50;9.52;;;25.20;99.90;;;;;;6245114;28;89005;-67
2023/08/24 02:35:22;;;;;;;10.48;9.38;;;25.20;99.90;;;;;;6251638;28;88461;-67
2023/08/24 02:38:24;;;;;;;10.40;9.50;;;25.20;99.90;;;;;;6242434;28;88961;-67
2023/08/24 02:41:27;;;;;;;10.27;9.30;;;25.20;99.90;;;;;;6246915;28;89027;-67
2023/08/24 02:44:32;;;;;;;10.88;9.85;;;25.10;99.90;;;;;;6238635;27;89306;-67
2023/08/24 02:47:34;;;;;;;10.23;9.32;;;25.20;99.90;;;;;;6246218;28;89056;-67
2023/08/24 02:50:36;;;;;;;10.48;9.45;;;25.10;99.90;;;;;;6246569;28;89103;-67
2023/08/24 02:53:38;;;;;;;10.80;9.80;;;25.10;99.90;;;;;;6245295;28;89305;-67
2023/08/24 02:56:40;;;;;;;10.48;9.50;;;25.00;99.90;;;;;;6244337;28;89027;-67
2023/08/24 02:59:44;;;;;;;10.32;9.32;;;25.00;99.90;;;;;;6237628;28;89419;-66
2023/08/24 03:02:46;;;;;;;10.73;9.57;;;25.00;99.90;;;;;;6249977;28;89019;-67
2023/08/24 03:05:56;;;;;;;10.57;9.10;;;25.00;99.90;;;;;;6244478;28;88401;-67
2023/08/24 03:08:58;;;;;;;10.63;9.52;;;25.10;99.90;;;;;;6238509;27;89335;-67
2023/08/24 03:11:59;;;;;;;10.60;9.57;;;25.00;99.90;;;;;;6233380;28;89068;-67
2023/08/24 03:15:03;;;;;;;11.90;9.07;;;25.00;99.90;;;;;;6242806;28;89961;-67
2023/08/24 03:18:05;;;;;;;10.75;9.65;;;25.00;99.90;;;;;;6248639;28;89422;-67
2023/08/24 03:21:07;;;;;;;10.65;9.57;;;25.00;99.90;;;;;;6249227;27;89060;-67
2023/08/24 03:24:09;;;;;;;10.65;9.52;;;24.90;99.90;;;;;;6246286;28;88959;-66
2023/08/24 03:27:11;;;;;;;11.00;9.88;;;25.00;99.90;;;;;;6236087;28;87946;-67
2023/08/24 03:30:15;;;;;;;10.32;9.38;;;24.90;99.90;;;;;;6236791;28;89100;-66
2023/08/24 03:33:17;;;;;;;10.57;9.60;;;24.90;99.90;;;;;;6240852;28;91326;-67
2023/08/24 03:36:21;;;;;;;10.93;9.93;;;24.90;99.90;;;;;;6247995;27;88274;-67
2023/08/24 03:39:23;;;;;;;13.82;11.38;;;24.90;99.90;;;;;;6239597;28;89063;-66
2023/08/24 03:42:25;;;;;;;11.52;9.40;;;24.90;99.90;;;;;;6233166;28;89007;-67
2023/08/24 03:45:28;;;;;;;10.60;9.63;;;24.90;99.90;;;;;;6232012;28;88870;-66
2023/08/24 03:48:30;;;;;;;12.07;9.80;;;24.90;99.90;;;;;;6241538;28;89417;-66
2023/08/24 03:51:32;;;;;;;10.48;9.43;;;24.90;99.90;;;;;;6238063;28;90300;-66
2023/08/24 03:54:34;;;;;;;10.15;9.07;;;24.90;99.90;;;;;;6244031;28;89057;-66
2023/08/24 03:57:37;;;;;;;10.90;9.45;;;24.90;99.90;;;;;;6235803;27;89054;-67
2023/08/24 04:00:41;;;;;;;10.05;9.15;;;24.80;99.90;;;;;;6231537;28;89169;-66
2023/08/24 04:03:43;;;;;;;10.65;9.18;;;24.90;99.90;;;;;;6246992;28;88977;-67
2023/08/24 04:06:45;;;;;;;9.88;8.68;;;24.90;99.90;;;;;;6244081;28;88299;-67
2023/08/24 04:09:47;;;;;;;8.95;8.15;;;24.90;99.90;;;;;;6231674;28;89883;-67
2023/08/24 04:12:49;;;;;;;9.30;8.45;;;24.90;99.90;;;;;;6232264;28;87963;-67
2023/08/24 04:15:52;;;;;;;9.15;8.30;;;25.00;99.90;;;;;;6239998;28;90005;-66
2023/08/24 04:18:54;;;;;;;9.20;8.30;;;25.10;99.90;;;;;;6235990;28;87908;-68
2023/08/24 04:21:56;;;;;;;9.52;8.27;;;25.20;99.90;;;;;;6239496;28;89074;-68
2023/08/24 04:24:58;;;;;;;8.70;7.90;;;25.40;99.90;;;;;;6239601;28;89120;-68
2023/08/24 04:28:01;;;;;;;8.57;7.88;;;25.50;99.90;;;;;;6246143;28;89019;-68
2023/08/24 04:31:05;;;;;;;10.30;8.23;;;25.50;99.90;;;;;;6240986;28;89041;-67
2023/08/24 04:34:07;;;;;;;9.27;8.38;;;25.50;99.90;;;;;;6234332;28;88899;-68
2023/08/24 04:37:09;;;;;;;20.52;10.50;;;25.60;99.90;;;;;;6242021;28;88317;-67
2023/08/24 04:40:12;;;;;;;12.77;9.00;;;25.70;99.90;;;;;;6243606;27;89086;-69
2023/08/24 04:43:14;;;;;;;10.68;8.57;;;25.70;99.90;;;;;;6233973;28;89095;-69
2023/08/24 04:46:17;;;;;;;10.27;8.32;;;25.70;99.90;;;;;;6232123;28;89908;-69
2023/08/24 04:49:19;;;;;;;9.73;8.23;;;25.80;99.90;;;;;;6236898;27;89487;-69
2023/08/24 04:52:21;;;;;;;11.88;8.15;;;25.80;99.90;;;;;;6242028;27;89001;-69
2023/08/24 04:55:23;;;;;;;8.98;8.05;;;25.80;99.90;;;;;;6239471;28;89757;-69
2023/08/24 04:58:26;;;;;;;16.92;10.48;;;25.80;99.90;;;;;;6233052;28;89328;-69
2023/08/24 05:01:31;;;;;;;13.70;9.25;;;25.80;99.90;;;;;;6234984;27;89079;-69
2023/08/24 05:04:33;;;;;;;14.20;10.68;;;25.80;99.90;;;;;;6237427;28;89003;-69
2023/08/24 05:07:35;;;;;;;13.85;10.07;;;25.90;99.90;;;;;;6239102;28;88367;-69
2023/08/24 05:10:37;;;;;;;13.27;9.73;;;25.90;99.90;;;;;;6238211;28;89217;-69
2023/08/24 05:13:39;;;;;;;12.25;8.88;;;25.90;99.90;;;;;;6230894;28;89174;-69
2023/08/24 05:16:42;;;;;;;15.07;9.48;;;25.90;99.90;;;;;;6237388;28;90206;-68
2023/08/24 05:19:44;;;;;;;12.70;9.27;;;25.90;99.90;;;;;;6243241;27;89343;-69
2023/08/24 05:22:46;;;;;;;17.95;11.15;;;25.90;99.90;;;;;;6238141;28;89063;-68
2023/08/24 05:25:48;;;;;;;18.30;11.23;;;26.00;99.90;;;;;;6242770;28;88267;-69
2023/08/24 05:28:53;;;;;;;16.45;11.00;;;26.00;99.90;;;;;;6230249;28;88707;-68
2023/08/24 05:31:56;;;;;;;14.35;11.00;;;26.00;99.90;;;;;;6230015;28;88847;-69
2023/08/24 05:34:58;;;;;;;17.15;11.32;;;26.00;99.90;;;;;;6234840;27;89001;-68
2023/08/24 05:38:00;;;;;;;13.18;10.90;;;26.00;99.90;;;;;;6237166;27;88661;-68
2023/08/24 05:41:02;;;;;;;13.68;10.48;;;26.00;99.90;;;;;;6234043;28;89097;-68
2023/08/24 05:44:05;;;;;;;13.10;10.30;;;26.00;99.90;;;;;;6243132;28;88109;-69
2023/08/24 05:47:08;;;;;;;11.85;10.18;;;26.00;99.90;;;;;;6232233;28;89980;-69
2023/08/24 05:50:11;;;;;;;12.10;10.48;;;26.00;99.90;;;;;;6243618;27;89176;-68
2023/08/24 05:53:14;;;;;;;12.88;10.20;;;26.10;99.90;;;;;;6247416;28;89050;-68
2023/08/24 05:56:16;;;;;;;13.57;11.73;;;26.10;99.90;;;;;;6234335;28;89050;-68
2023/08/24 05:59:18;;;;;;;11.68;10.57;;;26.20;99.90;;;;;;6248815;28;89405;-68
2023/08/24 06:02:21;;;;;;;10.95;9.88;;;26.30;99.90;;;;;;6243975;27;89012;-68
2023/08/24 06:05:23;;;;;;;11.18;10.13;;;26.40;99.90;;;;;;6236582;28;89138;-68
2023/08/24 06:08:25;;;;;;;10.18;9.18;;;26.50;99.90;;;;;;6236262;27;88352;-68
2023/08/24 06:11:27;;;;;;;9.45;8.48;;;26.50;99.90;;;;;;6235194;28;89422;-68
2023/08/24 06:14:29;;;;;;;9.82;8.93;;;26.60;99.90;;;;;;6249452;27;88959;-68
2023/08/24 06:17:32;;;;;;;10.10;8.70;;;26.60;99.90;;;;;;6248697;28;88888;-68
2023/08/24 06:20:34;;;;;;;8.77;8.05;;;26.70;99.90;;;;;;6239966;28;89008;-68
2023/08/24 06:23:36;;;;;;;8.85;8.00;;;26.70;99.90;;;;;;6245545;27;89095;-68
2023/08/24 06:26:38;;;;;;;8.93;8.13;;;26.70;99.90;;;;;;6250907;27;89323;-68
2023/08/24 06:29:44;;;;;;;8.85;8.02;;;26.70;99.90;;;;;;6234669;27;89077;-67
2023/08/24 06:32:47;;;;;;;8.48;7.70;;;26.70;99.90;;;;;;6251910;27;87916;-68
2023/08/24 06:35:49;;;;;;;8.45;7.70;;;26.70;99.90;;;;;;6245679;27;89056;-68
2023/08/24 06:38:51;;;;;;;8.73;7.93;;;26.70;99.90;;;;;;6247792;27;88597;-68
2023/08/24 06:41:53;;;;;;;8.50;7.30;;;26.70;99.90;;;;;;6244139;27;88936;-68
2023/08/24 06:44:55;;;;;;;8.10;7.40;;;26.70;99.90;;;;;;6237057;27;89224;-68
2023/08/24 06:47:59;;;;;;;8.50;7.70;;;26.70;99.90;;;;;;6236569;27;88861;-68
2023/08/24 06:51:01;;;;;;;8.30;7.55;;;26.70;99.90;;;;;;6239773;27;87947;-68
2023/08/24 06:54:03;;;;;;;8.02;7.32;;;26.70;99.90;;;;;;6240545;27;89415;-68
2023/08/24 06:57:05;;;;;;;8.50;7.70;;;26.60;99.90;;;;;;6241319;27;89040;-68
2023/08/24 07:00:09;;;;;;;8.13;7.43;;;26.70;99.90;;;;;;6243505;27;89841;-68
2023/08/24 07:03:12;;;;;;;8.10;7.30;;;26.60;99.90;;;;;;6239573;27;89627;-68
2023/08/24 07:06:14;;;;;;;8.52;7.57;;;26.60;99.90;;;;;;6244250;27;89030;-68
2023/08/24 07:09:18;;;;;;;7.90;7.22;;;26.60;99.90;;;;;;6234814;27;88692;-67
2023/08/24 07:12:20;;;;;;;8.52;7.75;;;26.60;99.90;;;;;;6252875;27;88067;-68
2023/08/24 07:15:22;;;;;;;8.45;7.72;;;26.60;99.90;;;;;;6239094;27;89096;-68
2023/08/24 07:18:34;;;;;;;7.85;7.15;;;26.60;99.90;;;;;;6231819;27;90012;-68
2023/08/24 07:21:36;;;;;;;8.50;7.70;;;26.60;99.90;;;;;;6248521;27;88135;-68
2023/08/24 07:24:38;;;;;;;7.70;7.10;;;26.60;99.90;;;;;;6245286;28;89451;-68
2023/08/24 07:27:40;;;;;;;8.02;7.35;;;26.60;99.90;;;;;;6244910;28;89367;-68
2023/08/24 07:30:42;;;;;;;8.10;7.40;;;26.60;99.90;;;;;;6237435;28;89630;-68
2023/08/24 07:33:46;;;;;;;8.25;7.45;;;26.60;99.90;;;;;;6237634;28;87394;-68
2023/08/24 07:36:48;;;;;;;8.38;7.50;;;26.60;99.90;;;;;;6245500;28;89001;-67
2023/08/24 07:39:50;;;;;;;7.30;6.63;;;26.70;99.90;;;;;;6242830;27;87247;-68
2023/08/24 07:42:55;;;;;;;7.80;7.10;;;26.60;99.90;;;;;;6233376;28;89031;-68
2023/08/24 07:45:57;;;;;;;7.70;7.10;;;26.70;99.90;;;;;;6235189;28;90970;-68
2023/08/24 07:49:00;;;;;;;7.93;7.22;;;26.60;99.90;;;;;;6238226;28;90128;-68
2023/08/24 07:52:02;;;;;;;8.07;7.47;;;26.70;99.90;;;;;;6238319;28;89366;-68
2023/08/24 07:55:06;;;;;;;7.72;7.03;;;26.60;99.90;;;;;;6238695;28;89084;-68
2023/08/24 07:58:08;;;;;;;7.75;7.15;;;26.70;99.90;;;;;;6242534;28;89101;-68
2023/08/24 08:01:10;;;;;;;8.13;7.35;;;26.70;99.90;;;;;;6238337;28;89087;-68
2023/08/24 08:04:14;;;;;;;8.00;7.30;;;26.70;99.90;;;;;;6242221;28;87978;-68
2023/08/24 08:07:16;;;;;;;8.00;7.20;;;26.60;99.90;;;;;;6242509;28;89199;-68
2023/08/24 08:10:20;;;;;;;7.95;7.25;;;26.70;99.90;;;;;;6245787;28;88222;-68
2023/08/24 08:13:22;;;;;;;8.00;7.30;;;26.70;99.90;;;;;;6231962;28;89195;-68
2023/08/24 08:16:24;;;;;;;7.95;7.22;;;26.60;99.90;;;;;;6231810;28;87950;-68
2023/08/24 08:19:27;;;;;;;7.82;7.13;;;26.60;99.90;;;;;;6231259;28;90011;-68
2023/08/24 08:22:29;;;;;;;7.75;7.15;;;26.70;99.90;;;;;;6238270;28;89567;-68
2023/08/24 08:25:31;;;;;;;7.55;6.85;;;26.60;99.90;;;;;;6245406;28;89010;-68
2023/08/24 08:28:34;;;;;;;7.70;7.10;;;26.70;99.90;;;;;;6235744;28;89342;-68
2023/08/24 08:31:37;;;;;;;7.93;7.22;;;26.70;99.90;;;;;;6231889;28;88046;-68
2023/08/24 08:34:40;;;;;;;7.47;6.88;;;26.70;99.90;;;;;;6245220;28;87743;-68
2023/08/24 08:37:42;;;;;;;7.82;7.13;;;26.70;99.90;;;;;;6240893;28;89124;-68
2023/08/24 08:40:46;;;;;;;8.20;7.40;;;26.70;99.90;;;;;;6232339;28;88370;-68
2023/08/24 08:43:49;;;;;;;8.00;7.30;;;26.60;99.90;;;;;;6240613;27;89039;-68
2023/08/24 08:46:51;;;;;;;7.22;6.63;;;26.70;99.90;;;;;;6230670;28;89259;-68
2023/08/24 08:49:56;;;;;;;8.60;7.80;;;26.70;99.90;;;;;;6230702;28;89999;-68
2023/08/24 08:52:58;;;;;;;7.57;6.97;;;26.70;99.90;;;;;;6243196;28;89160;-68
2023/08/24 08:56:04;;;;;;;8.18;7.47;;;26.70;99.90;;;;;;6245866;28;88983;-68
2023/08/24 08:59:09;;;;;;;7.40;6.80;;;26.70;99.90;;;;;;6248144;28;89025;-68
2023/08/24 09:02:17;;;;;;;7.80;7.20;;;26.70;99.90;;;;;;6231474;28;89074;-68
2023/08/24 09:05:21;;;;;;;7.60;7.00;;;26.70;99.90;;;;;;6230238;28;89203;-68
2023/08/24 09:08:23;;;;;;;7.20;6.70;;;26.70;99.90;;;;;;6230553;28;89006;-68
2023/08/24 09:11:25;;;;;;;7.90;7.20;;;26.70;99.90;;;;;;6233426;28;88735;-68
2023/08/24 09:14:27;;;;;;;7.63;7.03;;;26.70;99.90;;;;;;6237270;28;89067;-68
2023/08/24 09:17:29;;;;;;;7.63;7.03;;;26.70;99.90;;;;;;6249724;28;88990;-67
2023/08/24 09:20:34;;;;;;;8.00;7.30;;;26.70;99.90;;;;;;6231954;28;90204;-68
2023/08/24 09:23:36;;;;;;;8.05;7.45;;;26.70;99.90;;;;;;6242979;28;88361;-68
2023/08/24 09:26:42;;;;;;;8.02;7.35;;;26.70;99.90;;;;;;6244218;28;89023;-68
2023/08/24 09:29:44;;;;;;;7.43;6.82;;;26.70;99.90;;;;;;6239685;28;89112;-68
2023/08/24 09:32:46;;;;;;;7.13;6.60;;;26.70;99.90;;;;;;6247790;28;89401;-68
2023/08/24 09:35:55;;;;;;;7.53;6.93;;;26.70;99.90;;;;;;6250660;28;89594;-68
2023/08/24 09:38:57;;;;;;;7.88;7.28;;;26.70;99.90;;;;;;6234859;28;88978;-68
2023/08/24 09:42:03;;;;;;;7.65;7.05;;;26.70;99.90;;;;;;6234892;28;88442;-68
2023/08/24 09:45:05;;;;;;;8.02;7.22;;;26.70;99.90;;;;;;6241131;28;87845;-68
2023/08/24 09:48:08;;;;;;;7.57;6.97;;;26.70;99.90;;;;;;6234682;28;89021;-68
2023/08/24 09:51:13;;;;;;;7.55;6.95;;;26.70;99.90;;;;;;6229741;28;90135;-68
2023/08/24 09:54:18;;;;;;;7.40;6.90;;;26.70;99.90;;;;;;6238718;28;89329;-68
2023/08/24 09:57:21;;;;;;;7.60;6.90;;;26.70;99.90;;;;;;6241717;28;89449;-68
2023/08/24 10:00:24;;;;;;;7.90;7.30;;;26.70;99.90;;;;;;6246610;28;89511;-68
2023/08/24 10:03:27;;;;;;;7.07;6.57;;;26.80;99.90;;;;;;6231572;28;88532;-68
2023/08/24 10:06:30;;;;;;;7.60;7.00;;;26.80;99.90;;;;;;6233320;28;89680;-68
2023/08/24 10:09:39;;;;;;;7.72;7.07;;;26.80;99.90;;;;;;6232785;28;89090;-68
2023/08/24 10:12:48;;;;;;;7.40;6.90;;;26.80;99.90;;;;;;6234867;28;88313;-68
2023/08/24 10:15:51;;;;;;;7.55;6.95;;;26.70;99.90;;;;;;6230238;28;89138;-67
2023/08/24 10:18:54;;;;;;;7.70;7.10;;;26.80;99.90;;;;;;6243913;28;89049;-68
2023/08/24 10:22:00;;;;;;;7.43;6.82;;;26.80;99.90;;;;;;6228823;28;90061;-68
2023/08/24 10:25:02;;;;;;;7.93;7.22;;;26.80;99.90;;;;;;6241679;28;89378;-68
2023/08/24 10:28:06;;;;;;;7.40;6.80;;;26.80;99.90;;;;;;6231385;28;89080;-68
2023/08/24 10:31:09;;;;;;;7.40;6.80;;;26.80;99.90;;;;;;6233240;28;89289;-68
2023/08/24 10:34:12;;;;;;;7.63;7.03;;;26.80;99.90;;;;;;6238172;28;88997;-68
2023/08/24 10:37:15;;;;;;;7.90;7.20;;;26.80;99.90;;;;;;6244465;28;89356;-68
2023/08/24 10:40:32;;;;;;;7.18;6.57;;;26.80;99.90;;;;;;6246165;28;89332;-68
2023/08/24 10:43:36;;;;;;;7.28;6.68;;;26.80;99.90;;;;;;6241268;28;88740;-68
2023/08/24 10:46:38;;;;;;;7.40;6.80;;;26.80;99.90;;;;;;6252845;28;89468;-68
2023/08/24 10:49:40;;;;;;;7.25;6.75;;;26.80;99.90;;;;;;6237272;28;88852;-69
2023/08/24 10:52:46;;;;;;;7.30;6.70;;;26.80;99.90;;;;;;6242205;27;90000;-68
2023/08/24 10:55:48;;;;;;;7.40;6.80;;;26.80;99.90;;;;;;6248634;28;89465;-68
2023/08/24 10:59:11;;;;;;;6.97;6.47;;;26.80;99.90;;;;;;6246427;28;89048;-68
2023/08/24 11:02:20;;;;;;;7.50;6.90;;;26.80;99.90;;;;;;6239007;28;89392;-68
2023/08/24 11:05:24;;;;;;;7.55;6.95;;;26.80;99.90;;;;;;6246995;28;89062;-68
2023/08/24 11:08:49;;;;;;;7.07;6.50;;;26.80;99.90;;;;;;6244421;28;89125;-68
2023/08/24 11:11:58;;;;;;;7.20;6.60;;;26.80;99.90;;;;;;6235204;28;89368;-69
2023/08/24 11:15:01;;;;;;;7.43;6.82;;;26.80;99.90;;;;;;6243884;28;88236;-68
2023/08/24 11:18:21;;;;;;;7.20;6.65;;;26.90;99.90;;;;;;6233190;28;89233;-68
2023/08/24 11:21:23;;;;;;;7.47;6.90;;;26.80;99.90;;;;;;6238079;28;89067;-69
2023/08/24 11:24:28;;;;;;;7.45;6.88;;;26.90;99.90;;;;;;6234213;28;89996;-68
2023/08/24 11:27:31;;;;;;;7.00;6.40;;;26.80;99.90;;;;;;6232321;28;88889;-69
2023/08/24 11:30:34;;;;;;;7.18;6.57;;;26.80;99.90;;;;;;6238561;28;89064;-68
2023/08/24 11:33:36;;;;;;;6.97;6.45;;;26.90;99.90;;;;;;6250884;28;89566;-69
2023/08/24 11:36:46;;;;;;;7.18;6.68;;;26.90;99.90;;;;;;6241865;27;89072;-69
2023/08/24 11:39:50;;;;;;;7.18;6.68;;;26.90;99.90;;;;;;6238449;28;87984;-68
2023/08/24 11:42:54;;;;;;;7.30;6.70;;;26.90;99.90;;;;;;6244274;28;89330;-68
2023/08/24 11:45:56;;;;;;;7.05;6.55;;;26.90;99.90;;;;;;6251966;28;88324;-69
2023/08/24 11:49:00;;;;;;;7.57;6.97;;;26.90;99.90;;;;;;6240673;27;89096;-69
2023/08/24 11:52:02;;;;;;;7.53;6.90;;;26.90;99.90;;;;;;6232891;28;89739;-68
2023/08/24 11:55:09;;;;;;;7.15;6.55;;;26.90;99.90;;;;;;6243909;28;90308;-68
2023/08/24 11:58:17;;;;;;;7.38;6.78;;;26.90;99.90;;;;;;6233521;28;89728;-69
2023/08/24 12:01:19;;;;;;;7.60;7.00;;;26.90;99.90;;;;;;6231927;28;89149;-68
2023/08/24 12:04:21;;;;;;;7.70;7.10;;;26.90;99.90;;;;;;6242472;28;89119;-69
2023/08/24 12:07:23;;;;;;;7.47;6.88;;;26.90;99.90;;;;;;6252548;27;89106;-68
2023/08/24 12:10:27;;;;;;;7.28;6.70;;;26.90;99.90;;;;;;6233740;28;89296;-69
2023/08/24 12:13:34;;;;;;;7.25;6.65;;;26.90;99.90;;;;;;6233117;28;89096;-68
2023/08/24 12:16:36;;;;;;;6.90;6.30;;;26.90;99.90;;;;;;6232015;28;88327;-68
2023/08/24 12:19:43;;;;;;;7.10;6.60;;;26.90;99.90;;;;;;6244129;28;89384;-68
2023/08/24 12:22:51;;;;;;;7.20;6.70;;;26.90;99.90;;;;;;6224754;28;89001;-68
2023/08/24 12:25:55;;;;;;;7.30;6.80;;;26.90;99.90;;;;;;6214544;28;90119;-68
2023/08/24 12:29:03;;;;;;;6.88;6.38;;;26.90;99.90;;;;;;6207948;28;89407;-68
2023/08/24 12:32:05;;;;;;;7.10;6.50;;;26.90;99.90;;;;;;6208367;28;89172;-68
2023/08/24 12:35:08;;;;;;;7.28;6.72;;;26.90;99.90;;;;;;6211045;28;88044;-68
2023/08/24 12:38:10;;;;;;;7.05;6.47;;;26.90;99.90;;;;;;6216938;28;89037;-68
2023/08/24 12:41:14;;;;;;;7.55;6.95;;;26.90;99.90;;;;;;6206863;28;89135;-68
2023/08/24 12:44:16;;;;;;;7.43;6.82;;;27.00;99.90;;;;;;6217789;28;89143;-68
2023/08/24 12:47:17;;;;;;;7.28;6.78;;;27.00;99.90;;;;;;6209805;28;88261;-69
2023/08/24 12:50:19;;;;;;;7.40;6.80;;;26.90;99.90;;;;;;6216526;28;89180;-69
2023/08/24 12:53:21;;;;;;;7.53;6.93;;;27.00;99.90;;;;;;6209150;28;88963;-68
2023/08/24 12:56:25;;;;;;;7.15;6.65;;;27.00;99.90;;;;;;6205009;28;90014;-68
2023/08/24 12:59:27;;;;;;;7.43;6.82;;;26.90;99.90;;;;;;6216573;28;89223;-68
2023/08/24 13:02:29;;;;;;;7.25;6.65;;;26.90;99.90;;;;;;6230131;28;87938;-68
2023/08/24 13:05:31;;;;;;;7.30;6.80;;;26.90;99.90;;;;;;6207177;28;89145;-68
2023/08/24 13:08:33;;;;;;;7.00;6.50;;;26.90;99.90;;;;;;6215910;28;89059;-69
2023/08/24 13:11:36;;;;;;;6.82;6.32;;;27.00;99.90;;;;;;6209182;28;88307;-68
2023/08/24 13:14:38;;;;;;;7.90;7.20;;;27.00;99.90;;;;;;6218849;28;89366;-69
2023/08/24 13:17:40;;;;;;;6.82;6.32;;;27.00;99.90;;;;;;6211381;28;88721;-68
2023/08/24 13:20:42;;;;;;;7.13;6.63;;;27.00;99.90;;;;;;6214877;28;89340;-68
2023/08/24 13:23:44;;;;;;;7.22;6.63;;;27.00;99.90;;;;;;6230859;28;89454;-68
2023/08/24 13:26:47;;;;;;;7.05;6.53;;;27.00;99.90;;;;;;6229735;28;90124;-68
2023/08/24 13:29:49;;;;;;;7.03;6.53;;;27.00;99.90;;;;;;6230889;28;89175;-68
2023/08/24 13:32:51;;;;;;;7.38;6.78;;;27.00;99.90;;;;;;6238626;28;89020;-69
2023/08/24 13:35:53;;;;;;;6.93;6.43;;;27.00;99.90;;;;;;6244972;28;89021;-68
2023/08/24 13:38:55;;;;;;;7.10;6.57;;;27.00;99.90;;;;;;6233949;28;89060;-68
2023/08/24 13:41:59;;;;;;;7.20;6.70;;;27.00;99.90;;;;;;6228923;28;89106;-69
2023/08/24 13:45:01;;;;;;;7.32;6.72;;;27.00;99.90;;;;;;6237874;28;89068;-68
2023/08/24 13:48:03;;;;;;;7.53;6.93;;;27.00;99.90;;;;;;6230823;28;88741;-69
2023/08/24 13:51:05;;;;;;;6.88;6.38;;;27.00;99.90;;;;;;6240282;28;88017;-69
2023/08/24 13:54:15;;;;;;;7.10;6.60;;;27.00;99.90;;;;;;6241530;28;88246;-69
2023/08/24 13:57:19;;;;;;;7.43;6.88;;;27.00;99.90;;;;;;6232145;28;89967;-69
2023/08/24 14:00:22;;;;;;;6.68;6.18;;;27.00;99.90;;;;;;6249064;28;89263;-69
2023/08/24 14:03:25;;;;;;;7.00;6.50;;;27.00;99.90;;;;;;6239375;28;89778;-69
2023/08/24 14:06:29;;;;;;;6.78;6.28;;;27.00;99.90;;;;;;6235953;28;89078;-69
2023/08/24 14:09:32;;;;;;;7.22;6.63;;;27.00;99.90;;;;;;6248657;28;89114;-69
2023/08/24 14:12:36;;;;;;;7.18;6.68;;;27.00;99.90;;;;;;6237760;28;87956;-69
2023/08/24 14:15:37;;;;;;;7.47;6.88;;;27.00;99.90;;;;;;6235461;28;89112;-69
2023/08/24 14:18:39;;;;;;;6.65;6.15;;;27.00;99.90;;;;;;6239492;28;88349;-68
2023/08/24 14:21:41;;;;;;;6.80;6.30;;;27.10;99.90;;;;;;6239937;28;89524;-69
2023/08/24 14:24:44;;;;;;;7.35;6.72;;;27.10;99.90;;;;;;6246485;28;89055;-69
2023/08/24 14:27:47;;;;;;;6.78;6.28;;;27.10;99.90;;;;;;6234170;28;89797;-69
2023/08/24 14:30:50;;;;;;;6.97;6.47;;;27.00;99.90;;;;;;6235494;28;89041;-69
2023/08/24 14:33:52;;;;;;;6.88;6.38;;;27.10;99.90;;;;;;6236212;28;89291;-69
2023/08/24 14:36:54;;;;;;;6.90;6.40;;;27.10;99.90;;;;;;6247543;28;89130;-69
2023/08/24 14:39:56;;;;;;;7.05;6.55;;;27.10;99.90;;;;;;6251067;28;89117;-69
2023/08/24 14:43:00;;;;;;;6.80;6.30;;;27.10;99.90;;;;;;6240167;28;89023;-69
2023/08/24 14:46:02;;;;;;;7.05;6.55;;;27.10;99.90;;;;;;6250446;28;87964;-69
2023/08/24 14:49:04;;;;;;;7.10;6.50;;;27.10;99.90;;;;;;6235667;28;88482;-69
2023/08/24 14:52:06;;;;;;;7.07;6.50;;;27.10;99.90;;;;;;6247165;28;89009;-68
2023/08/24 14:55:10;;;;;;;7.05;6.45;;;27.10;99.90;;;;;;6241722;28;89169;-68
2023/08/24 14:58:13;;;;;;;6.60;6.10;;;27.10;99.90;;;;;;6244112;28;89971;-69
2023/08/24 15:01:16;;;;;;;7.47;6.88;;;27.10;99.90;;;;;;6243788;27;89013;-69
2023/08/24 15:04:17;;;;;;;7.25;6.65;;;27.10;99.90;;;;;;6242633;28;89061;-69
2023/08/24 15:07:19;;;;;;;6.90;6.25;;;27.10;99.90;;;;;;6245719;28;89088;-69
2023/08/24 15:10:22;;;;;;;6.82;6.30;;;27.10;99.90;;;;;;6234470;28;89993;-69
2023/08/24 15:13:26;;;;;;;6.53;6.03;;;27.10;99.90;;;;;;6240176;28;87921;-69
2023/08/24 15:16:28;;;;;;;6.65;6.15;;;27.10;99.90;;;;;;6246295;28;89074;-69
2023/08/24 15:19:30;;;;;;;6.78;6.28;;;27.10;99.90;;;;;;6239838;28;88348;-69
2023/08/24 15:22:32;;;;;;;6.68;6.18;;;27.10;99.90;;;;;;6237368;28;89059;-69
2023/08/24 15:25:34;;;;;;;7.05;6.45;;;27.20;99.90;;;;;;6244161;28;89085;-69
2023/08/24 15:28:58;;;;;;;7.22;6.63;;;27.10;99.90;;;;;;6240171;28;89008;-69
2023/08/24 15:32:01;;;;;;;6.68;6.18;;;27.10;99.90;;;;;;6245660;28;89144;-68
2023/08/24 15:35:05;;;;;;;7.50;6.90;;;27.10;99.90;;;;;;6240041;28;89146;-69
2023/08/24 15:38:07;;;;;;;6.53;6.03;;;27.20;99.90;;;;;;6241408;28;89043;-68
2023/08/24 15:41:09;;;;;;;6.47;5.97;;;27.10;99.90;;;;;;6239415;28;89136;-68
2023/08/24 15:44:12;;;;;;;6.30;5.90;;;27.20;99.90;;;;;;6251141;28;89041;-69
2023/08/24 15:47:14;;;;;;;6.82;6.28;;;27.20;99.90;;;;;;6234641;28;89093;-69
2023/08/24 15:50:16;;;;;;;6.97;6.47;;;27.20;99.90;;;;;;6245099;28;88272;-69